aviador You're here:

KBLU Decoded Metar

EMIGRANT GAP in CA, USA
Report Time2017-06-23 21:52:00
UTC Time2017-06-23 22:33:24
Flight Rules vfr VFR
WindVRB at 04 kt
Visibility9999 m
Phenomena:N/A
Clouds:N/A
Expected CloudBase > 6,400 ft AGL from Temp-Dew spread
CeilingNone
Temp28°C (ISA +23)
Dew Point12°C (37% RH)
Heat Index27.5°C
AAT27.2°C
QNH1023 hPa
Density Alt7,808 ft
Elevation5,279 ft
Report Wrong Elevation
Raw Report
KBLU 232152Z AUTO VRB04KT 10SM CLR 28/12 A3021 RMK AO2 SLP105
T02830122 TSNO=

Extra information for KBLU:More info

Metar Taf Metar & Taf Last 4 Metars F.Rules Stats Wind Profile Meteogram Temp Stats Airport Information Weather charts Add Link Nearby VenuesMetar ALERT Operation Metar Decoded Social comments

AIRNAV info for KBLU